Time;durP1;ratioP1;P1;durP2;ratioP2;P2;SDS_P1;SDS_P2;PMS_P1;PMS_P2;Temp;Humidity;BMP_temperature;BMP_pressure;BME280_temperature;BME280_humidity;BME280_pressure;Samples;Min_cycle;Max_cycle;Signal;HPM_P1;HPM_P2
2020/12/19 00:00:22;;;;;;;15.63;8.60;;;;;;;;;;5011831;28;20582;-80
2020/12/19 00:02:49;;;;;;;11.73;7.83;;;;;;;;;;5011244;28;20272;-80
2020/12/19 00:05:15;;;;;;;12.43;8.57;;;;;;;;;;5022511;28;20295;-80
2020/12/19 00:07:41;;;;;;;15.47;10.37;;;;;;;;;;5022133;28;20299;-81
2020/12/19 00:10:13;;;;;;;14.17;9.70;;;;;;;;;;5025566;28;20288;-80
2020/12/19 00:12:45;;;;;;;14.63;10.53;;;;;;;;;;5017837;28;20272;-79
2020/12/19 00:15:11;;;;;;;14.57;9.87;;;;;;;;;;5014493;28;20268;-80
2020/12/19 00:17:40;;;;;;;15.93;10.73;;;;;;;;;;5008325;28;20276;-80
2020/12/19 00:20:06;;;;;;;13.77;9.70;;;;;;;;;;5008224;28;20287;-80
2020/12/19 00:22:32;;;;;;;17.17;9.87;;;;;;;;;;5019034;28;20288;-80
2020/12/19 00:25:02;;;;;;;14.77;10.23;;;;;;;;;;5020896;28;20785;-80
2020/12/19 00:27:28;;;;;;;17.20;10.37;;;;;;;;;;5023231;28;20280;-80
2020/12/19 00:29:54;;;;;;;15.40;9.73;;;;;;;;;;5016369;28;20296;-80
2020/12/19 00:32:20;;;;;;;18.30;11.67;;;;;;;;;;5015106;28;20780;-80
2020/12/19 00:34:47;;;;;;;15.30;9.97;;;;;;;;;;5014385;28;20277;-80
2020/12/19 00:37:14;;;;;;;13.83;9.23;;;;;;;;;;5013736;28;20276;-80
2020/12/19 00:39:40;;;;;;;20.50;11.50;;;;;;;;;;5017573;28;20795;-81
2020/12/19 00:42:06;;;;;;;16.03;10.63;;;;;;;;;;5005263;28;20285;-80
2020/12/19 00:44:32;;;;;;;14.07;10.00;;;;;;;;;;5014808;28;20287;-80
2020/12/19 00:46:58;;;;;;;16.07;10.10;;;;;;;;;;5017789;28;20268;-80
2020/12/19 00:49:30;;;;;;;15.23;10.47;;;;;;;;;;5017382;28;20277;-80
2020/12/19 00:51:56;;;;;;;18.73;10.57;;;;;;;;;;5006219;28;20268;-80
2020/12/19 00:54:22;;;;;;;17.77;11.83;;;;;;;;;;5016100;28;20292;-79
2020/12/19 00:56:51;;;;;;;18.77;11.33;;;;;;;;;;5011010;28;20328;-80
2020/12/19 00:59:18;;;;;;;18.40;11.10;;;;;;;;;;5027003;28;20268;-79
2020/12/19 01:01:44;;;;;;;14.23;9.93;;;;;;;;;;5014226;28;20326;-80
2020/12/19 01:04:10;;;;;;;17.70;10.13;;;;;;;;;;5018129;28;20340;-79
2020/12/19 01:06:36;;;;;;;15.30;10.17;;;;;;;;;;5018870;28;20287;-79
2020/12/19 01:09:04;;;;;;;16.03;9.97;;;;;;;;;;5017595;28;21015;-80
2020/12/19 01:11:30;;;;;;;15.93;10.40;;;;;;;;;;5027145;28;20267;-80
2020/12/19 01:13:57;;;;;;;16.43;11.37;;;;;;;;;;5016268;28;21270;-80
2020/12/19 01:16:28;;;;;;;15.03;9.87;;;;;;;;;;5009015;28;20281;-80
2020/12/19 01:18:55;;;;;;;15.07;10.00;;;;;;;;;;5009984;28;21027;-80
2020/12/19 01:21:22;;;;;;;16.97;10.33;;;;;;;;;;5008501;28;20273;-79
2020/12/19 01:23:49;;;;;;;16.67;11.07;;;;;;;;;;5007421;28;20625;-79
2020/12/19 01:26:15;;;;;;;14.53;10.37;;;;;;;;;;5022482;28;20331;-80
2020/12/19 01:28:41;;;;;;;16.80;9.53;;;;;;;;;;5009972;28;20292;-79
2020/12/19 01:31:12;;;;;;;14.67;9.63;;;;;;;;;;5008710;28;20356;-80
2020/12/19 01:33:38;;;;;;;14.87;9.87;;;;;;;;;;5007976;28;20300;-79
2020/12/19 01:36:16;;;;;;;13.03;9.30;;;;;;;;;;5007939;28;20273;-79
2020/12/19 01:38:43;;;;;;;13.47;9.47;;;;;;;;;;5009049;28;20938;-80
2020/12/19 01:41:09;;;;;;;13.30;9.90;;;;;;;;;;5004069;28;20370;-80
2020/12/19 01:43:42;;;;;;;14.40;8.67;;;;;;;;;;5021291;28;20356;-80
2020/12/19 01:46:09;;;;;;;10.60;6.72;;;;;;;;;;5029251;28;20297;-80
2020/12/19 01:48:36;;;;;;;11.37;8.60;;;;;;;;;;5047152;28;20036;-79
2020/12/19 01:51:02;;;;;;;14.83;7.87;;;;;;;;;;5016373;28;20253;-80
2020/12/19 01:53:30;;;;;;;12.77;9.67;;;;;;;;;;5004744;28;20324;-80
2020/12/19 01:55:57;;;;;;;12.63;8.30;;;;;;;;;;5029959;28;20277;-80
2020/12/19 01:58:23;;;;;;;13.57;9.30;;;;;;;;;;5007064;28;20273;-81
2020/12/19 02:00:49;;;;;;;12.87;8.47;;;;;;;;;;5007427;28;20779;-80
2020/12/19 02:03:15;;;;;;;14.23;9.60;;;;;;;;;;5009108;28;20261;-79
2020/12/19 02:05:42;;;;;;;13.73;9.97;;;;;;;;;;5020481;28;20265;-79
2020/12/19 02:08:08;;;;;;;14.53;10.50;;;;;;;;;;4987989;28;20281;-80
2020/12/19 02:10:35;;;;;;;15.80;9.30;;;;;;;;;;5000682;28;20291;-80
2020/12/19 02:13:05;;;;;;;13.30;9.37;;;;;;;;;;5008316;28;20269;-80
2020/12/19 02:15:44;;;;;;;15.00;9.80;;;;;;;;;;4990111;28;20253;-80
2020/12/19 02:18:11;;;;;;;15.93;10.17;;;;;;;;;;5027646;28;20260;-79
2020/12/19 02:20:37;;;;;;;14.27;10.27;;;;;;;;;;5026470;28;20264;-78
2020/12/19 02:23:07;;;;;;;14.33;10.03;;;;;;;;;;5006502;28;20886;-78
2020/12/19 02:25:38;;;;;;;13.20;9.87;;;;;;;;;;5007572;28;20327;-78
2020/12/19 02:28:05;;;;;;;16.27;10.47;;;;;;;;;;5006050;28;20273;-77
2020/12/19 02:30:34;;;;;;;12.17;9.07;;;;;;;;;;5008253;28;20289;-78
2020/12/19 02:33:00;;;;;;;14.23;10.17;;;;;;;;;;5003593;28;20285;-78
2020/12/19 02:35:29;;;;;;;13.97;10.13;;;;;;;;;;4992475;28;20343;-79
2020/12/19 02:37:56;;;;;;;16.53;10.90;;;;;;;;;;4991643;28;20268;-79
2020/12/19 02:40:22;;;;;;;14.53;9.77;;;;;;;;;;5019926;28;20265;-78
2020/12/19 02:42:48;;;;;;;17.33;10.70;;;;;;;;;;5009563;28;20269;-78
2020/12/19 02:45:14;;;;;;;16.30;10.77;;;;;;;;;;5010584;28;20327;-78
2020/12/19 02:47:40;;;;;;;14.63;10.47;;;;;;;;;;5009116;28;20268;-77
2020/12/19 02:50:07;;;;;;;14.83;10.57;;;;;;;;;;5011622;28;20285;-78
2020/12/19 02:52:33;;;;;;;15.40;10.30;;;;;;;;;;5010233;28;20381;-78
2020/12/19 02:54:59;;;;;;;13.77;9.67;;;;;;;;;;5010312;28;20338;-78
2020/12/19 02:57:25;;;;;;;13.50;9.57;;;;;;;;;;5009464;28;20268;-79
2020/12/19 02:59:52;;;;;;;12.27;7.73;;;;;;;;;;5013974;28;20397;-78
2020/12/19 03:02:18;;;;;;;14.40;9.60;;;;;;;;;;5032700;28;20753;-78
2020/12/19 03:04:44;;;;;;;15.17;9.90;;;;;;;;;;5018400;28;20304;-78
2020/12/19 03:07:10;;;;;;;15.73;10.77;;;;;;;;;;5024294;28;20273;-78
2020/12/19 03:09:36;;;;;;;13.87;10.37;;;;;;;;;;5012363;28;20288;-77
2020/12/19 03:12:09;;;;;;;15.83;10.47;;;;;;;;;;5012332;28;20635;-78
2020/12/19 03:14:35;;;;;;;16.63;10.40;;;;;;;;;;5003734;28;20260;-78
2020/12/19 03:17:01;;;;;;;14.90;10.60;;;;;;;;;;5026917;28;20018;-78
2020/12/19 03:19:27;;;;;;;16.13;11.20;;;;;;;;;;5012353;28;20273;-78
2020/12/19 03:21:55;;;;;;;18.30;11.57;;;;;;;;;;5012207;28;20347;-79
2020/12/19 03:24:21;;;;;;;17.10;9.97;;;;;;;;;;5013572;28;20391;-78
2020/12/19 03:26:47;;;;;;;15.67;10.70;;;;;;;;;;5013034;28;20261;-78
2020/12/19 03:29:14;;;;;;;16.37;10.93;;;;;;;;;;5003854;28;20371;-78
2020/12/19 03:31:40;;;;;;;15.07;10.83;;;;;;;;;;5014375;28;20277;-78
2020/12/19 03:34:06;;;;;;;14.90;9.97;;;;;;;;;;5012726;28;20759;-78
2020/12/19 03:36:32;;;;;;;20.50;10.27;;;;;;;;;;5005973;28;20506;-78
2020/12/19 03:39:04;;;;;;;16.60;10.23;;;;;;;;;;5005309;28;20819;-78
2020/12/19 03:41:30;;;;;;;14.20;10.00;;;;;;;;;;5013775;28;20261;-77
2020/12/19 03:43:56;;;;;;;13.13;8.63;;;;;;;;;;5011463;28;20288;-78
2020/12/19 03:46:22;;;;;;;14.73;9.67;;;;;;;;;;5011807;28;20268;-78
2020/12/19 03:48:53;;;;;;;16.77;10.97;;;;;;;;;;5012029;28;20285;-78
2020/12/19 03:51:19;;;;;;;16.50;10.40;;;;;;;;;;5008455;28;20764;-78
2020/12/19 03:53:45;;;;;;;16.70;9.90;;;;;;;;;;5012174;28;20261;-78
2020/12/19 03:56:11;;;;;;;16.00;11.03;;;;;;;;;;5011477;28;20269;-78
2020/12/19 03:58:38;;;;;;;16.13;10.73;;;;;;;;;;5029724;28;20248;-79
2020/12/19 04:01:05;;;;;;;15.50;11.17;;;;;;;;;;5011697;28;20783;-79
2020/12/19 04:03:31;;;;;;;16.23;10.63;;;;;;;;;;5010443;28;20257;-78
2020/12/19 04:05:57;;;;;;;15.30;9.77;;;;;;;;;;5013096;28;20256;-78
2020/12/19 04:08:23;;;;;;;15.03;9.80;;;;;;;;;;5009511;28;20276;-78
2020/12/19 04:10:49;;;;;;;14.53;9.77;;;;;;;;;;5010051;28;20280;-79
2020/12/19 04:13:15;;;;;;;17.17;9.77;;;;;;;;;;5012426;28;20257;-80
2020/12/19 04:15:41;;;;;;;20.57;11.30;;;;;;;;;;5007827;28;20280;-80
2020/12/19 04:18:10;;;;;;;16.90;10.17;;;;;;;;;;5003733;28;20272;-78
2020/12/19 04:20:36;;;;;;;15.80;9.90;;;;;;;;;;5009281;28;20269;-78
2020/12/19 04:23:02;;;;;;;19.90;11.63;;;;;;;;;;5008359;28;20272;-78
2020/12/19 04:25:28;;;;;;;17.00;9.83;;;;;;;;;;5008803;28;20265;-78
2020/12/19 04:27:55;;;;;;;17.20;10.70;;;;;;;;;;5009320;28;20257;-78
2020/12/19 04:30:21;;;;;;;15.73;9.77;;;;;;;;;;5008972;28;20285;-78
2020/12/19 04:32:47;;;;;;;15.07;9.27;;;;;;;;;;5008704;28;20323;-78
2020/12/19 04:35:13;;;;;;;14.43;9.53;;;;;;;;;;5003840;28;20331;-78
2020/12/19 04:37:40;;;;;;;15.90;10.30;;;;;;;;;;5009136;28;20790;-79
2020/12/19 04:40:06;;;;;;;16.03;9.90;;;;;;;;;;5030260;28;20264;-78
2020/12/19 04:42:32;;;;;;;13.10;9.13;;;;;;;;;;5009702;28;20280;-78
2020/12/19 04:44:59;;;;;;;14.07;8.97;;;;;;;;;;5014122;28;20355;-78
2020/12/19 04:47:25;;;;;;;14.23;8.80;;;;;;;;;;5028361;28;20272;-79
2020/12/19 04:49:51;;;;;;;16.37;9.37;;;;;;;;;;5014372;28;20314;-79
2020/12/19 04:52:17;;;;;;;13.73;9.07;;;;;;;;;;5008559;28;20319;-77
2020/12/19 04:54:44;;;;;;;18.10;10.53;;;;;;;;;;5009034;28;20751;-77
2020/12/19 04:57:17;;;;;;;13.77;8.80;;;;;;;;;;5007574;28;20273;-78
2020/12/19 04:59:43;;;;;;;12.40;7.93;;;;;;;;;;5009784;28;20268;-78
2020/12/19 05:02:09;;;;;;;13.77;9.00;;;;;;;;;;5008313;28;20076;-78
2020/12/19 05:04:40;;;;;;;18.60;8.90;;;;;;;;;;5009499;28;20261;-78
2020/12/19 05:07:07;;;;;;;12.07;8.00;;;;;;;;;;5009312;28;20273;-77
2020/12/19 05:09:53;;;;;;;14.53;8.40;;;;;;;;;;4992801;28;20297;-78
2020/12/19 05:12:19;;;;;;;11.10;7.27;;;;;;;;;;5040648;28;20624;-78
2020/12/19 05:14:45;;;;;;;11.33;7.63;;;;;;;;;;5009542;28;20268;-78
2020/12/19 05:17:11;;;;;;;11.30;7.90;;;;;;;;;;5027469;28;21029;-79
2020/12/19 05:19:37;;;;;;;13.17;8.20;;;;;;;;;;5022456;28;20253;-78
2020/12/19 05:22:03;;;;;;;10.77;7.33;;;;;;;;;;5004317;28;20795;-79
2020/12/19 05:24:31;;;;;;;12.40;8.30;;;;;;;;;;4990137;28;20941;-78
2020/12/19 05:26:57;;;;;;;11.23;7.17;;;;;;;;;;5000549;28;20268;-79
2020/12/19 05:29:23;;;;;;;10.93;8.10;;;;;;;;;;5008243;28;20304;-78
2020/12/19 05:31:56;;;;;;;11.03;7.60;;;;;;;;;;4993405;28;20265;-78
2020/12/19 05:34:23;;;;;;;11.85;7.47;;;;;;;;;;5008488;28;20276;-78
2020/12/19 05:36:50;;;;;;;11.90;7.13;;;;;;;;;;5007768;28;20113;-78
2020/12/19 05:39:16;;;;;;;10.63;7.63;;;;;;;;;;5016184;28;20280;-78
2020/12/19 05:41:49;;;;;;;11.57;7.97;;;;;;;;;;5024602;28;20273;-78
2020/12/19 05:44:25;;;;;;;10.15;7.15;;;;;;;;;;5007371;28;20355;-78
2020/12/19 05:46:52;;;;;;;11.93;6.67;;;;;;;;;;5011459;28;20027;-78
2020/12/19 05:49:18;;;;;;;10.87;7.47;;;;;;;;;;5013002;28;20296;-78
2020/12/19 05:51:44;;;;;;;10.60;7.40;;;;;;;;;;5016309;28;20264;-78
2020/12/19 05:54:13;;;;;;;12.00;6.90;;;;;;;;;;5018946;28;20260;-78
2020/12/19 05:56:40;;;;;;;10.23;6.87;;;;;;;;;;5006551;28;20664;-79
2020/12/19 05:59:11;;;;;;;11.17;7.77;;;;;;;;;;5005796;28;20360;-78
2020/12/19 06:01:39;;;;;;;12.10;8.17;;;;;;;;;;5010593;28;20266;-79
2020/12/19 06:04:07;;;;;;;11.23;7.43;;;;;;;;;;5022861;28;20344;-78
2020/12/19 06:06:33;;;;;;;12.50;8.07;;;;;;;;;;5029678;28;20265;-78
2020/12/19 06:09:00;;;;;;;12.73;6.83;;;;;;;;;;5021266;28;20319;-78
2020/12/19 06:11:28;;;;;;;27.93;16.83;;;;;;;;;;5013650;28;20710;-79
2020/12/19 06:13:59;;;;;;;16.03;9.90;;;;;;;;;;5016228;28;21101;-78
2020/12/19 06:16:26;;;;;;;13.10;8.27;;;;;;;;;;5023815;28;20303;-80
2020/12/19 06:18:52;;;;;;;11.10;8.10;;;;;;;;;;5025349;28;20280;-78
2020/12/19 06:21:18;;;;;;;11.40;8.33;;;;;;;;;;5021311;28;20847;-79
2020/12/19 06:23:45;;;;;;;13.30;9.07;;;;;;;;;;5027366;28;20261;-78
2020/12/19 06:26:12;;;;;;;14.40;9.00;;;;;;;;;;5022418;28;20318;-80
2020/12/19 06:28:47;;;;;;;11.87;9.10;;;;;;;;;;5018966;28;20322;-79
2020/12/19 06:31:13;;;;;;;11.00;8.83;;;;;;;;;;5014165;28;20285;-79
2020/12/19 06:33:40;;;;;;;13.70;8.87;;;;;;;;;;5013129;28;20328;-80
2020/12/19 06:38:57;;;;;;;12.60;8.93;;;;;;;;;;5016284;28;20268;-79
2020/12/19 06:41:42;;;;;;;11.97;7.47;;;;;;;;;;5012428;28;20265;-79
2020/12/19 06:44:13;;;;;;;11.97;7.97;;;;;;;;;;5022571;28;20316;-79
2020/12/19 06:46:39;;;;;;;11.70;7.57;;;;;;;;;;5031141;28;20264;-79
2020/12/19 06:49:35;;;;;;;11.13;7.10;;;;;;;;;;5013097;28;20327;-79
2020/12/19 06:52:03;;;;;;;11.77;7.50;;;;;;;;;;5000706;28;20284;-79
2020/12/19 06:54:56;;;;;;;10.10;6.60;;;;;;;;;;5012338;28;20272;-79
2020/12/19 06:57:25;;;;;;;10.23;7.30;;;;;;;;;;5000490;28;20283;-79
2020/12/19 06:59:52;;;;;;;11.07;7.57;;;;;;;;;;5002295;28;20622;-80
2020/12/19 07:02:22;;;;;;;10.87;7.60;;;;;;;;;;5011708;28;20780;-79
2020/12/19 07:04:49;;;;;;;27.77;16.40;;;;;;;;;;5010997;28;20323;-79
2020/12/19 07:07:47;;;;;;;14.80;10.60;;;;;;;;;;5009663;28;20425;-79
2020/12/19 07:10:13;;;;;;;11.83;7.57;;;;;;;;;;5012557;28;20791;-79
2020/12/19 07:12:40;;;;;;;10.63;7.23;;;;;;;;;;5007486;28;20281;-79
2020/12/19 07:15:07;;;;;;;12.23;8.70;;;;;;;;;;4992431;28;20595;-79
2020/12/19 07:17:43;;;;;;;11.97;8.13;;;;;;;;;;5022792;28;20269;-79
2020/12/19 07:20:10;;;;;;;10.70;7.10;;;;;;;;;;5028760;28;20343;-79
2020/12/19 07:22:36;;;;;;;10.90;6.83;;;;;;;;;;5010226;28;20999;-79
2020/12/19 07:25:03;;;;;;;12.30;7.50;;;;;;;;;;5015072;28;20276;-79
2020/12/19 07:27:36;;;;;;;10.67;7.37;;;;;;;;;;5016144;28;20276;-78
2020/12/19 07:30:06;;;;;;;10.65;7.47;;;;;;;;;;5020214;28;20285;-79
2020/12/19 07:32:32;;;;;;;10.37;7.20;;;;;;;;;;5010005;28;20033;-78
2020/12/19 07:34:59;;;;;;;11.97;7.60;;;;;;;;;;5018331;28;20280;-79
2020/12/19 07:37:26;;;;;;;11.33;6.97;;;;;;;;;;5031404;28;20615;-79
2020/12/19 07:40:03;;;;;;;8.87;5.90;;;;;;;;;;5011047;28;20388;-78
2020/12/19 07:42:30;;;;;;;8.43;5.10;;;;;;;;;;5028825;28;20279;-79
2020/12/19 07:44:56;;;;;;;10.57;4.87;;;;;;;;;;5024526;28;20276;-80
2020/12/19 07:47:22;;;;;;;7.93;5.43;;;;;;;;;;5009536;28;20356;-80
2020/12/19 07:49:50;;;;;;;7.60;4.80;;;;;;;;;;5010267;28;20281;-80
2020/12/19 07:52:19;;;;;;;6.97;4.30;;;;;;;;;;4999897;28;20641;-79
2020/12/19 07:54:53;;;;;;;7.33;4.63;;;;;;;;;;5005698;28;20300;-79
2020/12/19 07:57:19;;;;;;;;;;;;;;;;;;5010251;28;20283;-79
2020/12/19 07:59:50;;;;;;;6.43;3.90;;;;;;;;;;5012352;28;19909;-79
2020/12/19 08:02:17;;;;;;;8.83;4.07;;;;;;;;;;5012339;28;20053;-80
2020/12/19 08:04:54;;;;;;;7.30;3.83;;;;;;;;;;5006422;28;20376;-80
2020/12/19 08:07:29;;;;;;;7.30;3.57;;;;;;;;;;4993495;28;20265;-80
2020/12/19 08:10:05;;;;;;;6.77;4.60;;;;;;;;;;5008951;28;20034;-79
2020/12/19 08:12:31;;;;;;;8.17;4.37;;;;;;;;;;5001925;28;20026;-79
2020/12/19 08:14:58;;;;;;;5.70;3.67;;;;;;;;;;5008606;28;20018;-80
2020/12/19 08:17:25;;;;;;;8.13;3.43;;;;;;;;;;5008583;28;20109;-80
2020/12/19 08:19:52;;;;;;;7.27;4.03;;;;;;;;;;5005311;28;20031;-79
2020/12/19 08:22:19;;;;;;;7.37;4.20;;;;;;;;;;5004616;28;20365;-80
2020/12/19 08:24:47;;;;;;;6.63;4.33;;;;;;;;;;5011127;28;20037;-80
2020/12/19 08:27:32;;;;;;;6.17;3.97;;;;;;;;;;5012836;28;20032;-80
2020/12/19 08:30:02;;;;;;;8.47;4.30;;;;;;;;;;5010601;28;20034;-80
2020/12/19 08:32:30;;;;;;;5.90;4.07;;;;;;;;;;5024781;28;20393;-80
2020/12/19 08:34:56;;;;;;;6.73;3.80;;;;;;;;;;5026429;28;20017;-80
2020/12/19 08:37:22;;;;;;;6.40;3.87;;;;;;;;;;5012972;28;20109;-81
2020/12/19 08:40:08;;;;;;;5.97;3.97;;;;;;;;;;5037897;28;20037;-80
2020/12/19 08:42:35;;;;;;;7.93;4.23;;;;;;;;;;5028162;28;20033;-79
2020/12/19 08:45:13;;;;;;;6.43;4.20;;;;;;;;;;5021191;28;20034;-80
2020/12/19 08:47:40;;;;;;;7.63;3.73;;;;;;;;;;5024989;28;20822;-80
2020/12/19 08:50:06;;;;;;;6.57;3.63;;;;;;;;;;5019543;28;20029;-80
2020/12/19 08:52:32;;;;;;;5.50;3.27;;;;;;;;;;5022431;28;20052;-80
2020/12/19 08:54:59;;;;;;;7.07;4.13;;;;;;;;;;5016540;28;20117;-81
2020/12/19 08:57:31;;;;;;;7.97;3.97;;;;;;;;;;5010488;28;20033;-81
2020/12/19 09:00:10;;;;;;;7.13;4.00;;;;;;;;;;5022686;28;20040;-80
2020/12/19 09:02:41;;;;;;;6.23;3.73;;;;;;;;;;5019273;28;20026;-78
2020/12/19 09:05:07;;;;;;;5.53;3.80;;;;;;;;;;5010344;28;20057;-80
2020/12/19 09:07:33;;;;;;;6.50;4.10;;;;;;;;;;5016459;28;20033;-79
2020/12/19 09:09:59;;;;;;;6.77;3.83;;;;;;;;;;5020870;28;20038;-79
2020/12/19 09:12:25;;;;;;;8.80;4.17;;;;;;;;;;5053411;28;20034;-79
2020/12/19 09:14:52;;;;;;;6.63;4.23;;;;;;;;;;5026872;28;20029;-78
2020/12/19 09:17:28;;;;;;;5.63;3.77;;;;;;;;;;5011897;28;20067;-79
2020/12/19 09:20:04;;;;;;;6.60;4.50;;;;;;;;;;5014711;28;20018;-79
2020/12/19 09:22:30;;;;;;;9.13;4.10;;;;;;;;;;5013800;28;20052;-80
2020/12/19 09:24:57;;;;;;;7.17;4.00;;;;;;;;;;5013693;28;20589;-78
2020/12/19 09:27:24;;;;;;;6.27;3.70;;;;;;;;;;5013800;28;20038;-79
2020/12/19 09:29:50;;;;;;;5.53;3.63;;;;;;;;;;4995898;28;20099;-78
2020/12/19 09:32:17;;;;;;;7.30;3.83;;;;;;;;;;5007056;28;20068;-79
2020/12/19 09:34:43;;;;;;;6.13;4.00;;;;;;;;;;5005613;28;20079;-78
2020/12/19 09:37:10;;;;;;;6.37;4.10;;;;;;;;;;5016598;28;20030;-79
2020/12/19 09:39:42;;;;;;;6.17;4.03;;;;;;;;;;5006903;28;20443;-78
2020/12/19 09:42:08;;;;;;;7.77;3.97;;;;;;;;;;5007318;28;20026;-77
2020/12/19 09:44:35;;;;;;;8.43;4.00;;;;;;;;;;5003452;28;20038;-79
2020/12/19 09:47:01;;;;;;;7.60;4.57;;;;;;;;;;5022158;28;20393;-78
2020/12/19 09:49:27;;;;;;;6.00;4.50;;;;;;;;;;5009622;28;20025;-80
2020/12/19 09:51:53;;;;;;;7.33;4.00;;;;;;;;;;5015491;28;20028;-79
2020/12/19 09:54:19;;;;;;;8.10;4.00;;;;;;;;;;5013837;28;20021;-80
2020/12/19 09:56:48;;;;;;;7.73;4.07;;;;;;;;;;5006607;28;20038;-78
2020/12/19 09:59:14;;;;;;;5.90;4.00;;;;;;;;;;5005946;28;20028;-79
2020/12/19 10:01:40;;;;;;;5.77;3.63;;;;;;;;;;5016624;28;20026;-79
2020/12/19 10:04:06;;;;;;;4.70;3.60;;;;;;;;;;5027405;28;20061;-78
2020/12/19 10:06:32;;;;;;;6.47;4.33;;;;;;;;;;5010205;28;20030;-79
2020/12/19 10:08:58;;;;;;;7.80;3.93;;;;;;;;;;5025769;28;20272;-80
2020/12/19 10:11:27;;;;;;;5.97;4.00;;;;;;;;;;5006073;28;20022;-78
2020/12/19 10:13:54;;;;;;;6.97;4.33;;;;;;;;;;5009307;28;20030;-80
2020/12/19 10:16:20;;;;;;;8.13;4.03;;;;;;;;;;5021938;28;20068;-79
2020/12/19 10:18:47;;;;;;;6.47;4.47;;;;;;;;;;5019652;28;20041;-80
2020/12/19 10:21:19;;;;;;;5.73;4.17;;;;;;;;;;5021254;28;20113;-80
2020/12/19 10:23:45;;;;;;;6.77;3.73;;;;;;;;;;5009499;28;20140;-79
2020/12/19 10:26:12;;;;;;;5.80;4.07;;;;;;;;;;5007430;28;20053;-80
2020/12/19 10:28:38;;;;;;;7.43;3.87;;;;;;;;;;5006059;28;20030;-79
2020/12/19 10:31:04;;;;;;;6.20;4.10;;;;;;;;;;5016865;28;20636;-79
2020/12/19 10:33:30;;;;;;;5.70;3.43;;;;;;;;;;5003445;28;20034;-79
2020/12/19 10:35:56;;;;;;;6.20;3.50;;;;;;;;;;5003986;28;20858;-80
2020/12/19 10:38:22;;;;;;;6.80;4.37;;;;;;;;;;5011619;28;20033;-79
2020/12/19 10:40:48;;;;;;;7.03;4.50;;;;;;;;;;5014385;28;20034;-78
2020/12/19 10:43:14;;;;;;;7.23;4.97;;;;;;;;;;5009952;28;20026;-79
2020/12/19 10:45:40;;;;;;;5.90;4.00;;;;;;;;;;5008292;28;20612;-80
2020/12/19 10:48:10;;;;;;;8.20;4.13;;;;;;;;;;5018329;28;20107;-79
2020/12/19 10:50:37;;;;;;;7.33;4.63;;;;;;;;;;5006723;28;20665;-80
2020/12/19 10:53:03;;;;;;;6.93;4.80;;;;;;;;;;5015927;28;20029;-79
2020/12/19 10:55:30;;;;;;;6.28;4.28;;;;;;;;;;5028789;28;20616;-79
2020/12/19 10:57:56;;;;;;;7.47;4.57;;;;;;;;;;5021559;28;20160;-80
2020/12/19 11:00:23;;;;;;;6.15;4.50;;;;;;;;;;5016345;28;20645;-79
2020/12/19 11:02:49;;;;;;;7.47;4.40;;;;;;;;;;5011445;28;20041;-80
2020/12/19 11:05:19;;;;;;;6.93;4.70;;;;;;;;;;5015437;28;20076;-80
2020/12/19 11:07:45;;;;;;;6.45;4.57;;;;;;;;;;5029713;28;20865;-79
2020/12/19 11:10:12;;;;;;;7.97;5.05;;;;;;;;;;5017286;28;20022;-79
2020/12/19 11:12:39;;;;;;;7.22;5.15;;;;;;;;;;5028796;28;20116;-79
2020/12/19 11:15:05;;;;;;;6.88;4.97;;;;;;;;;;5020962;28;20532;-79
2020/12/19 11:17:31;;;;;;;7.38;4.72;;;;;;;;;;5022136;28;20029;-78
2020/12/19 11:19:58;;;;;;;8.02;5.65;;;;;;;;;;5017738;28;20033;-79
2020/12/19 11:22:24;;;;;;;9.50;6.13;;;;;;;;;;5023314;28;20025;-79
2020/12/19 11:24:50;;;;;;;6.95;5.15;;;;;;;;;;5016049;28;20065;-79
2020/12/19 11:27:16;;;;;;;12.13;6.18;;;;;;;;;;5025761;28;20835;-80
2020/12/19 11:29:42;;;;;;;11.10;5.30;;;;;;;;;;5025952;28;20631;-80
2020/12/19 11:32:08;;;;;;;6.72;4.90;;;;;;;;;;5021376;28;20100;-81
2020/12/19 11:34:34;;;;;;;7.07;5.07;;;;;;;;;;5006543;28;20057;-78
2020/12/19 11:37:00;;;;;;;6.22;4.68;;;;;;;;;;5025715;28;20026;-79
2020/12/19 11:39:29;;;;;;;6.60;4.75;;;;;;;;;;5015951;28;20037;-79
2020/12/19 11:42:00;;;;;;;6.95;5.30;;;;;;;;;;5008835;28;20060;-79
2020/12/19 11:44:26;;;;;;;6.70;4.82;;;;;;;;;;5020167;28;20047;-78
2020/12/19 11:46:52;;;;;;;7.03;5.05;;;;;;;;;;5023606;28;20025;-78
2020/12/19 11:49:22;;;;;;;8.02;5.65;;;;;;;;;;5018864;28;20144;-78
2020/12/19 11:51:48;;;;;;;6.85;4.97;;;;;;;;;;5013708;28;20488;-78
2020/12/19 11:54:14;;;;;;;7.60;5.50;;;;;;;;;;5006135;28;20100;-79
2020/12/19 11:56:40;;;;;;;6.80;5.22;;;;;;;;;;5006967;28;20037;-80
2020/12/19 11:59:06;;;;;;;8.80;6.57;;;;;;;;;;5002559;28;20038;-79
2020/12/19 12:01:33;;;;;;;9.02;6.25;;;;;;;;;;5015123;28;20041;-79
2020/12/19 12:03:59;;;;;;;7.70;5.78;;;;;;;;;;5009460;28;20022;-79
2020/12/19 12:06:32;;;;;;;8.27;6.22;;;;;;;;;;5019728;28;20128;-79
2020/12/19 12:08:59;;;;;;;9.95;6.82;;;;;;;;;;4996623;28;20091;-78
2020/12/19 12:11:26;;;;;;;7.65;4.93;;;;;;;;;;5015994;28;20022;-79
2020/12/19 12:13:52;;;;;;;9.95;6.88;;;;;;;;;;5010272;28;20034;-79
2020/12/19 12:16:19;;;;;;;7.47;5.85;;;;;;;;;;5018796;28;20030;-79
2020/12/19 12:18:45;;;;;;;7.40;5.55;;;;;;;;;;5021758;28;20053;-79
2020/12/19 12:21:11;;;;;;;10.73;6.30;;;;;;;;;;5010710;28;20026;-79
2020/12/19 12:23:37;;;;;;;6.93;4.88;;;;;;;;;;5000775;28;20480;-78
2020/12/19 12:26:04;;;;;;;7.03;5.75;;;;;;;;;;5017059;28;20026;-78
2020/12/19 12:28:30;;;;;;;7.27;5.43;;;;;;;;;;5019055;28;20022;-77
2020/12/19 12:30:59;;;;;;;7.57;5.23;;;;;;;;;;5002161;28;20121;-78
2020/12/19 12:33:25;;;;;;;6.77;5.23;;;;;;;;;;5010011;28;20034;-79
2020/12/19 12:35:51;;;;;;;8.60;5.40;;;;;;;;;;5016443;28;20118;-78
2020/12/19 12:38:21;;;;;;;8.00;5.83;;;;;;;;;;5019163;28;20040;-79
2020/12/19 12:40:48;;;;;;;9.07;5.73;;;;;;;;;;5028508;28;20349;-79
2020/12/19 12:43:14;;;;;;;7.77;4.87;;;;;;;;;;5023734;28;20072;-81
2020/12/19 12:45:42;;;;;;;8.87;5.87;;;;;;;;;;5016877;28;20022;-78
2020/12/19 12:48:08;;;;;;;9.43;4.90;;;;;;;;;;5007482;28;20061;-81
2020/12/19 12:50:34;;;;;;;7.57;5.30;;;;;;;;;;5010915;28;20033;-82
2020/12/19 12:53:00;;;;;;;10.57;5.80;;;;;;;;;;5006965;28;20026;-79
2020/12/19 12:55:28;;;;;;;8.17;5.17;;;;;;;;;;5037982;28;20169;-79
2020/12/19 12:57:54;;;;;;;7.57;4.93;;;;;;;;;;5009594;28;20030;-79
2020/12/19 13:00:20;;;;;;;9.30;5.67;;;;;;;;;;5010381;28;20033;-79
2020/12/19 13:02:46;;;;;;;7.63;4.73;;;;;;;;;;5008348;28;20034;-79
2020/12/19 13:05:12;;;;;;;9.23;5.87;;;;;;;;;;5008832;28;20124;-79
2020/12/19 13:07:38;;;;;;;7.20;4.33;;;;;;;;;;5007913;28;20065;-79
2020/12/19 13:10:04;;;;;;;7.33;4.87;;;;;;;;;;5008633;28;20045;-79
2020/12/19 13:12:30;;;;;;;6.43;4.87;;;;;;;;;;5005462;28;20030;-80
2020/12/19 13:14:56;;;;;;;7.67;4.90;;;;;;;;;;4999640;28;20031;-78
2020/12/19 13:17:22;;;;;;;7.63;4.33;;;;;;;;;;4992368;28;20038;-78
2020/12/19 13:19:49;;;;;;;6.23;4.20;;;;;;;;;;5008248;28;20030;-78
2020/12/19 13:22:15;;;;;;;8.17;5.23;;;;;;;;;;4999788;28;20039;-77
2020/12/19 13:24:41;;;;;;;6.43;4.30;;;;;;;;;;5012625;28;20064;-79
2020/12/19 13:27:08;;;;;;;6.30;4.27;;;;;;;;;;5016084;28;20037;-78
2020/12/19 13:29:35;;;;;;;7.17;5.07;;;;;;;;;;5012935;28;20044;-79
2020/12/19 13:32:01;;;;;;;8.00;4.70;;;;;;;;;;5015838;28;20681;-79
2020/12/19 13:34:27;;;;;;;8.53;5.77;;;;;;;;;;5009597;28;20038;-81
2020/12/19 13:36:53;;;;;;;7.97;5.23;;;;;;;;;;5007922;28;20030;-79
2020/12/19 13:39:19;;;;;;;7.47;5.33;;;;;;;;;;5007973;28;20030;-79
2020/12/19 13:41:46;;;;;;;8.40;5.97;;;;;;;;;;5007422;28;20039;-79
2020/12/19 13:44:12;;;;;;;6.97;5.53;;;;;;;;;;5009080;28;20154;-79
2020/12/19 13:46:38;;;;;;;7.90;5.23;;;;;;;;;;5023437;28;20037;-79
2020/12/19 13:49:04;;;;;;;8.70;5.70;;;;;;;;;;5011850;28;20077;-79
2020/12/19 13:51:31;;;;;;;8.03;6.10;;;;;;;;;;5025250;28;20672;-79
2020/12/19 13:53:58;;;;;;;8.70;6.67;;;;;;;;;;5029367;28;20049;-80
2020/12/19 13:56:25;;;;;;;9.67;6.53;;;;;;;;;;5013922;28;20052;-79
2020/12/19 13:58:52;;;;;;;9.60;6.60;;;;;;;;;;5008010;28;20417;-80
2020/12/19 14:01:19;;;;;;;9.67;6.30;;;;;;;;;;5029270;28;20120;-80
2020/12/19 14:03:45;;;;;;;8.87;5.87;;;;;;;;;;5017472;28;20038;-79
2020/12/19 14:06:14;;;;;;;9.00;6.27;;;;;;;;;;5012595;28;20025;-79
2020/12/19 14:08:40;;;;;;;8.47;6.07;;;;;;;;;;5017582;28;20441;-80
2020/12/19 14:11:07;;;;;;;10.37;7.53;;;;;;;;;;5017316;28;20041;-80
2020/12/19 14:13:35;;;;;;;9.93;6.07;;;;;;;;;;5011473;28;20084;-80
2020/12/19 14:16:02;;;;;;;8.50;6.43;;;;;;;;;;5013730;28;20478;-80
2020/12/19 14:18:28;;;;;;;9.03;6.33;;;;;;;;;;5009223;28;20560;-80
2020/12/19 14:20:56;;;;;;;9.60;6.33;;;;;;;;;;5010831;28;20053;-80
2020/12/19 14:23:22;;;;;;;10.77;7.40;;;;;;;;;;5020837;28;20045;-79
2020/12/19 14:25:48;;;;;;;10.17;6.90;;;;;;;;;;5008209;28;20583;-78
2020/12/19 14:28:15;;;;;;;10.20;6.80;;;;;;;;;;5010009;28;20030;-80
2020/12/19 14:30:41;;;;;;;10.87;8.10;;;;;;;;;;5023728;28;20036;-79
2020/12/19 14:33:07;;;;;;;10.23;7.30;;;;;;;;;;5013256;28;20026;-80
2020/12/19 14:35:34;;;;;;;12.13;7.83;;;;;;;;;;5008550;28;20121;-80
2020/12/19 14:38:00;;;;;;;12.90;8.70;;;;;;;;;;5016694;28;20400;-80